createdAt,value
2022-11-23T00:01:32.465Z,71.35
2022-11-23T00:04:05.030Z,71.17
2022-11-23T00:06:32.588Z,71.37
2022-11-23T00:08:59.156Z,72.58
2022-11-23T00:11:27.874Z,73.09
2022-11-23T00:13:55.455Z,72.44
2022-11-23T00:16:25.560Z,72.63
2022-11-23T00:18:57.097Z,71.95
2022-11-23T00:21:25.475Z,70.89
2022-11-23T00:23:52.065Z,72.82
2022-11-23T00:26:19.695Z,71.19
2022-11-23T00:28:46.605Z,71.05
2022-11-23T00:31:19.028Z,70.75
2022-11-23T00:33:50.952Z,70.15
2022-11-23T00:36:17.737Z,70.43
2022-11-23T00:38:45.284Z,71.04
2022-11-23T00:41:21.217Z,71.36
2022-11-23T00:43:47.853Z,70.97
2022-11-23T00:46:23.470Z,70.27
2022-11-23T00:48:52.729Z,70.65
2022-11-23T00:51:22.629Z,70.76
2022-11-23T00:53:52.321Z,70.46
2022-11-23T00:56:19.984Z,70.21
2022-11-23T00:58:53.604Z,70.94
2022-11-23T01:01:25.934Z,70.44
2022-11-23T01:03:58.159Z,69.37
2022-11-23T01:06:30.619Z,69.89
2022-11-23T01:08:59.766Z,69.18
2022-11-23T01:11:29.337Z,69.71
2022-11-23T01:13:56.383Z,69.17
2022-11-23T01:16:26.410Z,69.43
2022-11-23T01:18:58.435Z,68.25
2022-11-23T01:21:26.592Z,68.65
2022-11-23T01:23:53.696Z,67.36
2022-11-23T01:26:20.574Z,68.27
2022-11-23T01:28:47.896Z,68.59
2022-11-23T01:31:18.961Z,69.12
2022-11-23T01:33:46.213Z,68.90
2022-11-23T01:36:18.627Z,68.09
2022-11-23T01:38:47.835Z,67.60
2022-11-23T01:41:35.614Z,67.99
2022-11-23T01:44:25.676Z,69.07
2022-11-23T01:46:52.124Z,68.76
2022-11-23T01:49:19.064Z,68.59
2022-11-23T01:51:50.401Z,69.42
2022-11-23T01:54:30.642Z,69.18
2022-11-23T01:57:03.259Z,69.49
2022-11-23T01:59:33.420Z,69.42
2022-11-23T02:02:00.233Z,70.66
2022-11-23T02:04:38.925Z,70.97
2022-11-23T02:07:06.780Z,70.49
2022-11-23T02:09:36.047Z,70.84
2022-11-23T02:12:02.553Z,70.49
2022-11-23T02:14:29.759Z,70.32
2022-11-23T02:16:59.572Z,70.28
2022-11-23T02:19:29.344Z,69.35
2022-11-23T02:21:56.126Z,69.32
2022-11-23T02:24:40.503Z,69.53
2022-11-23T02:27:07.132Z,69.40
2022-11-23T02:29:34.501Z,69.27
2022-11-23T02:32:01.077Z,68.52
2022-11-23T02:34:27.621Z,69.09
2022-11-23T02:36:57.295Z,69.14
2022-11-23T02:39:34.657Z,68.83
2022-11-23T02:42:01.194Z,68.48
2022-11-23T02:45:01.303Z,68.50
2022-11-23T02:47:27.841Z,68.03
2022-11-23T02:49:54.321Z,69.67
2022-11-23T02:52:20.823Z,70.33
2022-11-23T02:54:47.281Z,69.68
2022-11-23T02:57:13.783Z,70.09
2022-11-23T02:59:40.233Z,69.84
2022-11-23T03:02:06.850Z,69.08
2022-11-23T03:04:33.312Z,68.70
2022-11-23T03:06:59.803Z,68.22
2022-11-23T03:09:26.395Z,68.33
2022-11-23T03:11:54.258Z,68.29
2022-11-23T03:14:21.416Z,67.65
2022-11-23T03:16:47.894Z,67.30
2022-11-23T03:19:14.903Z,66.69
2022-11-23T03:21:41.347Z,64.12
2022-11-23T03:24:07.856Z,64.62
2022-11-23T03:26:34.321Z,64.05
2022-11-23T03:29:00.780Z,63.74
2022-11-23T03:31:27.220Z,64.14
2022-11-23T03:33:53.876Z,64.76
2022-11-23T03:36:20.347Z,63.38
2022-11-23T03:38:46.811Z,62.77
2022-11-23T03:41:13.265Z,62.53
2022-11-23T03:43:39.722Z,62.45
2022-11-23T03:46:06.157Z,62.49
2022-11-23T03:48:32.590Z,62.75
2022-11-23T03:50:59.033Z,61.85
2022-11-23T03:53:25.498Z,62.01
2022-11-23T03:55:51.965Z,62.93
2022-11-23T03:58:18.392Z,63.62
2022-11-23T04:00:45.361Z,61.56
2022-11-23T04:03:11.903Z,61.79
2022-11-23T04:05:38.336Z,59.79
2022-11-23T04:08:05.049Z,59.88
2022-11-23T04:10:31.513Z,61.10
2022-11-23T04:13:15.097Z,60.63
2022-11-23T04:15:53.005Z,60.72
2022-11-23T04:18:19.522Z,66.78
2022-11-23T04:20:45.992Z,67.14
2022-11-23T04:23:13.682Z,67.82
2022-11-23T04:25:40.324Z,66.50
2022-11-23T04:28:06.861Z,68.81
2022-11-23T04:30:33.340Z,69.49
2022-11-23T04:32:59.789Z,70.88
2022-11-23T04:35:26.319Z,71.20
2022-11-23T04:37:52.752Z,69.78
2022-11-23T04:40:19.180Z,68.84
2022-11-23T04:42:45.623Z,68.56
2022-11-23T04:45:12.052Z,68.17
2022-11-23T04:47:38.512Z,69.71
2022-11-23T04:50:05.964Z,68.66
2022-11-23T04:52:32.466Z,71.32
2022-11-23T04:54:58.944Z,70.02
2022-11-23T04:57:25.401Z,71.27
2022-11-23T04:59:51.855Z,70.99
2022-11-23T05:02:18.312Z,71.17
2022-11-23T05:04:44.755Z,72.01
2022-11-23T05:07:11.275Z,71.65
2022-11-23T05:09:38.340Z,72.98
2022-11-23T05:12:04.998Z,71.42
2022-11-23T05:14:31.444Z,71.29
2022-11-23T05:16:57.896Z,70.47
2022-11-23T05:19:24.336Z,69.72
2022-11-23T05:21:50.766Z,72.29
2022-11-23T05:24:17.245Z,71.56
2022-11-23T05:26:43.699Z,71.60
2022-11-23T05:29:10.185Z,71.12
2022-11-23T05:31:36.617Z,70.41
2022-11-23T05:34:03.075Z,70.23
2022-11-23T05:36:29.541Z,69.95
2022-11-23T05:38:55.966Z,69.99
2022-11-23T05:41:22.396Z,69.15
2022-11-23T05:43:48.850Z,68.80
2022-11-23T05:46:15.301Z,69.26
2022-11-23T05:48:41.853Z,67.56
2022-11-23T05:51:08.338Z,67.54
2022-11-23T05:53:34.841Z,67.71
2022-11-23T05:56:02.111Z,67.83
2022-11-23T05:58:28.906Z,68.04
2022-11-23T06:00:59.371Z,68.07
2022-11-23T06:03:26.209Z,68.71
2022-11-23T06:05:52.716Z,68.84
2022-11-23T06:08:19.335Z,69.25
2022-11-23T06:10:45.772Z,68.65
2022-11-23T06:13:12.216Z,68.86
2022-11-23T06:15:38.654Z,68.79
2022-11-23T06:18:05.195Z,68.29
2022-11-23T06:20:31.656Z,68.57
2022-11-23T06:22:58.232Z,69.27
2022-11-23T06:25:24.835Z,69.02
2022-11-23T06:28:00.073Z,68.72
2022-11-23T06:30:28.565Z,68.64
2022-11-23T06:32:55.055Z,69.11
2022-11-23T06:35:21.862Z,69.06
2022-11-23T06:37:51.806Z,69.15
2022-11-23T06:40:18.406Z,69.16
2022-11-23T06:42:44.899Z,68.26
2022-11-23T06:45:12.235Z,68.49
2022-11-23T06:47:38.813Z,69.23
2022-11-23T06:50:05.796Z,69.02
2022-11-23T06:52:32.830Z,68.31
2022-11-23T06:54:59.320Z,67.73
2022-11-23T06:57:25.771Z,68.26
2022-11-23T06:59:52.201Z,68.73
2022-11-23T07:02:18.736Z,68.96
2022-11-23T07:04:45.197Z,68.11
2022-11-23T07:07:11.725Z,68.73
2022-11-23T07:09:38.239Z,70.57
2022-11-23T07:12:04.957Z,69.59
2022-11-23T07:14:31.441Z,71.14
2022-11-23T07:16:57.883Z,70.46
2022-11-23T07:19:24.439Z,70.62
2022-11-23T07:21:50.895Z,70.22
2022-11-23T07:24:17.344Z,69.80
2022-11-23T07:26:43.818Z,69.54
2022-11-23T07:29:10.436Z,68.85
2022-11-23T07:31:36.928Z,68.57
2022-11-23T07:34:03.397Z,68.71
2022-11-23T07:36:29.874Z,68.13
2022-11-23T07:38:56.448Z,67.90
2022-11-23T07:41:22.905Z,67.59
2022-11-23T07:43:49.367Z,69.21
2022-11-23T07:46:15.831Z,72.21
2022-11-23T07:48:42.288Z,72.85
2022-11-23T07:51:08.749Z,73.70
2022-11-23T07:53:35.230Z,73.51
2022-11-23T07:56:01.710Z,75.13
2022-11-23T07:58:28.205Z,73.29
2022-11-23T08:00:54.706Z,74.04
2022-11-23T08:03:29.354Z,74.64
2022-11-23T08:05:56.322Z,74.71
2022-11-23T08:08:23.092Z,73.00
2022-11-23T08:10:53.480Z,72.45
2022-11-23T08:13:22.066Z,72.88
2022-11-23T08:15:54.328Z,72.34
2022-11-23T08:18:22.519Z,70.58
2022-11-23T08:20:48.952Z,70.03
2022-11-23T08:23:15.399Z,69.56
2022-11-23T08:25:41.862Z,70.04
2022-11-23T08:28:08.361Z,68.70
2022-11-23T08:30:35.376Z,68.89
2022-11-23T08:33:07.020Z,68.71
2022-11-23T08:35:37.422Z,68.08
2022-11-23T08:38:05.157Z,68.11
2022-11-23T08:40:32.284Z,68.85
2022-11-23T08:42:58.732Z,67.36
2022-11-23T08:45:25.386Z,68.46
2022-11-23T08:47:52.160Z,66.14
2022-11-23T08:50:19.949Z,65.36
2022-11-23T08:52:46.661Z,66.07
2022-11-23T08:55:14.582Z,64.90
2022-11-23T08:57:41.106Z,67.04
2022-11-23T09:00:08.285Z,64.37
2022-11-23T09:02:34.770Z,65.42
2022-11-23T09:05:01.249Z,64.14
2022-11-23T09:07:27.763Z,62.26
2022-11-23T09:09:54.248Z,61.34
2022-11-23T09:12:20.735Z,61.82
2022-11-23T09:14:47.165Z,62.51
2022-11-23T09:17:13.613Z,64.27
2022-11-23T09:19:40.099Z,63.59
2022-11-23T09:22:06.614Z,65.86
2022-11-23T09:24:33.350Z,65.26
2022-11-23T09:27:00.112Z,68.02
2022-11-23T09:29:26.580Z,68.19
2022-11-23T09:31:53.058Z,68.92
2022-11-23T09:34:19.797Z,68.05
2022-11-23T09:36:46.634Z,66.88
2022-11-23T09:39:13.101Z,66.30
2022-11-23T09:41:45.686Z,64.50
2022-11-23T09:44:49.808Z,62.35
2022-11-23T09:47:40.837Z,61.50
2022-11-23T09:50:07.278Z,61.00
2022-11-23T09:52:38.145Z,61.12
2022-11-23T09:55:31.097Z,61.57
2022-11-23T09:58:03.753Z,60.50
2022-11-23T10:00:53.602Z,60.09
2022-11-23T10:03:20.124Z,60.46
2022-11-23T10:06:16.389Z,60.53
2022-11-23T10:08:57.751Z,59.31
2022-11-23T10:11:27.238Z,58.89
2022-11-23T10:14:05.935Z,61.02
2022-11-23T10:16:38.287Z,60.70
2022-11-23T10:19:41.952Z,59.76
2022-11-23T10:22:36.984Z,59.92
2022-11-23T10:25:19.665Z,59.76
2022-11-23T10:27:49.308Z,59.09
2022-11-23T10:30:18.513Z,58.54
2022-11-23T10:33:10.134Z,58.62
2022-11-23T10:35:36.622Z,58.76
2022-11-23T10:38:19.376Z,57.99
2022-11-23T10:41:01.316Z,58.36
2022-11-23T10:43:37.789Z,58.35
2022-11-23T10:46:25.865Z,57.03
2022-11-23T10:48:53.907Z,56.76
2022-11-23T10:51:33.445Z,54.98
2022-11-23T10:54:06.048Z,54.75
2022-11-23T10:56:34.556Z,55.41
2022-11-23T10:59:01.256Z,55.47
2022-11-23T11:01:29.112Z,56.51
2022-11-23T11:03:59.588Z,56.47
2022-11-23T11:06:29.368Z,55.45
2022-11-23T11:09:04.544Z,55.82
2022-11-23T11:11:35.881Z,55.98
2022-11-23T11:14:21.647Z,55.75
2022-11-23T11:16:48.855Z,54.52
2022-11-23T11:19:33.043Z,54.02
2022-11-23T11:22:02.275Z,53.29
2022-11-23T11:24:36.125Z,54.57
2022-11-23T11:27:12.121Z,53.78
2022-11-23T11:29:48.843Z,53.16
2022-11-23T11:32:22.662Z,52.51
2022-11-23T11:35:08.887Z,53.41
2022-11-23T11:37:49.000Z,52.74
2022-11-23T11:40:28.252Z,52.55
2022-11-23T11:43:13.296Z,52.47
2022-11-23T11:48:39.494Z,52.13
2022-11-23T11:51:17.644Z,52.40
2022-11-23T11:53:57.334Z,52.28
2022-11-23T11:56:32.849Z,51.32
2022-11-23T11:59:33.163Z,51.70
2022-11-23T12:02:43.034Z,51.10
2022-11-23T12:05:28.818Z,52.17
2022-11-23T12:08:10.396Z,52.59
2022-11-23T12:10:50.026Z,52.27
2022-11-23T12:13:23.440Z,51.71
2022-11-23T12:16:26.080Z,50.09
2022-11-23T12:19:13.324Z,49.50
2022-11-23T12:21:47.142Z,49.79
2022-11-23T12:24:36.694Z,50.57
2022-11-23T12:27:16.636Z,49.87
2022-11-23T12:29:59.495Z,49.30
2022-11-23T12:32:53.410Z,48.38
2022-11-23T12:35:47.505Z,48.63
2022-11-23T12:38:52.565Z,46.35
2022-11-23T12:41:42.768Z,47.24
2022-11-23T12:44:21.169Z,48.30
2022-11-23T12:47:28.832Z,48.11
2022-11-23T12:50:20.205Z,47.92
2022-11-23T12:52:55.688Z,49.15
2022-11-23T12:55:50.072Z,49.42
2022-11-23T12:58:21.261Z,47.82
2022-11-23T13:01:00.980Z,47.23
2022-11-23T13:03:45.859Z,48.92
2022-11-23T13:06:31.107Z,48.04
2022-11-23T13:09:00.346Z,49.10
2022-11-23T13:12:05.533Z,48.75
2022-11-23T13:15:05.685Z,49.64
2022-11-23T13:17:52.045Z,49.57
2022-11-23T13:20:43.848Z,49.47
2022-11-23T13:23:10.676Z,49.84
2022-11-23T13:25:37.135Z,48.98
2022-11-23T13:28:25.263Z,48.34
2022-11-23T13:31:15.760Z,48.45
2022-11-23T13:33:49.442Z,51.18
2022-11-23T13:37:04.453Z,50.63
2022-11-23T13:39:51.422Z,50.46
2022-11-23T13:42:19.241Z,51.51
2022-11-23T13:44:45.846Z,52.23
2022-11-23T13:47:21.402Z,53.27
2022-11-23T13:49:53.008Z,53.91
2022-11-23T13:52:22.449Z,55.01
2022-11-23T13:55:09.284Z,54.52
2022-11-23T13:57:38.608Z,55.60
2022-11-23T14:00:52.869Z,56.38
2022-11-23T14:03:47.479Z,56.80
2022-11-23T14:06:45.392Z,57.18
2022-11-23T14:09:29.833Z,59.13
2022-11-23T14:12:29.742Z,59.51
2022-11-23T14:15:18.450Z,61.04
2022-11-23T14:18:22.396Z,61.89
2022-11-23T14:20:54.609Z,61.40
2022-11-23T14:23:34.861Z,61.81
2022-11-23T14:26:29.655Z,63.79
2022-11-23T14:29:21.286Z,65.60
2022-11-23T14:31:59.828Z,65.02
2022-11-23T14:34:55.408Z,65.82
2022-11-23T14:38:12.491Z,66.04
2022-11-23T14:41:00.366Z,66.22
2022-11-23T14:43:28.598Z,66.63
2022-11-23T14:46:02.483Z,68.75
2022-11-23T14:48:31.958Z,69.49
2022-11-23T14:51:03.706Z,71.54
2022-11-23T14:53:35.003Z,72.32
2022-11-23T14:56:01.953Z,73.02
2022-11-23T14:58:32.650Z,73.97
2022-11-23T15:01:01.423Z,74.51
2022-11-23T15:06:23.878Z,75.66
2022-11-23T15:08:57.448Z,78.52
2022-11-23T15:11:29.576Z,78.11
2022-11-23T15:13:56.035Z,80.39
2022-11-23T15:16:22.560Z,78.34
2022-11-23T15:18:49.449Z,78.79
2022-11-23T15:21:27.331Z,80.14
2022-11-23T15:23:57.663Z,80.90
2022-11-23T15:29:35.139Z,82.51
2022-11-23T15:32:35.577Z,81.67
2022-11-23T15:35:10.902Z,81.61
2022-11-23T15:37:49.923Z,80.58
2022-11-23T15:40:18.581Z,79.33
2022-11-23T15:42:49.314Z,79.46
2022-11-23T15:45:34.712Z,79.36
2022-11-23T15:48:12.260Z,79.19
2022-11-23T15:50:53.284Z,78.10
2022-11-23T15:53:25.819Z,78.70
2022-11-23T15:55:53.896Z,79.97
2022-11-23T15:58:21.338Z,83.38
2022-11-23T16:00:58.141Z,83.74
2022-11-23T16:03:33.032Z,84.86
2022-11-23T16:06:36.443Z,83.38
2022-11-23T16:12:21.822Z,84.53
2022-11-23T16:14:48.459Z,86.20
2022-11-23T16:17:23.237Z,88.73
2022-11-23T16:19:55.855Z,88.58
2022-11-23T16:22:30.890Z,88.78
2022-11-23T16:25:08.345Z,88.34
2022-11-23T16:27:36.176Z,86.87
2022-11-23T16:30:03.689Z,86.99
2022-11-23T16:32:31.827Z,86.77
2022-11-23T16:35:15.014Z,86.70
2022-11-23T16:37:41.459Z,85.96
2022-11-23T16:40:08.548Z,87.93
2022-11-23T16:42:36.425Z,87.86
2022-11-23T16:45:05.693Z,87.66
2022-11-23T16:47:33.767Z,87.41
2022-11-23T16:50:00.240Z,86.16
2022-11-23T16:52:26.725Z,85.26
2022-11-23T16:54:55.980Z,83.49
2022-11-23T16:57:27.841Z,83.08
2022-11-23T16:59:55.094Z,81.95
2022-11-23T17:02:22.042Z,81.77
2022-11-23T17:04:48.646Z,80.47
2022-11-23T17:07:15.202Z,80.05
2022-11-23T17:09:41.697Z,79.28
2022-11-23T17:12:15.815Z,79.42
2022-11-23T17:14:44.459Z,79.34
2022-11-23T17:17:17.997Z,79.53
2022-11-23T17:19:44.496Z,79.75
2022-11-23T17:22:10.942Z,78.14
2022-11-23T17:24:37.409Z,77.66
2022-11-23T17:27:03.912Z,78.02
2022-11-23T17:29:30.587Z,77.30
2022-11-23T17:31:57.398Z,77.28
2022-11-23T17:34:23.853Z,77.50
2022-11-23T17:36:52.021Z,76.93
2022-11-23T17:39:25.000Z,77.12
2022-11-23T17:41:51.584Z,75.43
2022-11-23T17:44:18.269Z,75.62
2022-11-23T17:46:46.577Z,75.37
2022-11-23T17:49:15.336Z,75.23
2022-11-23T17:51:41.794Z,75.14
2022-11-23T17:54:08.508Z,74.99
2022-11-23T17:56:35.297Z,74.98
2022-11-23T17:59:01.755Z,75.01
2022-11-23T18:01:28.241Z,75.46
2022-11-23T18:03:54.851Z,75.69
2022-11-23T18:06:23.665Z,74.66
2022-11-23T18:08:51.661Z,75.22
2022-11-23T18:11:19.331Z,75.52
2022-11-23T18:13:46.575Z,76.05
2022-11-23T18:16:13.109Z,76.21
2022-11-23T18:18:39.586Z,76.37
2022-11-23T18:21:07.409Z,77.62
2022-11-23T18:23:33.924Z,77.10
2022-11-23T18:26:05.580Z,77.05
2022-11-23T18:28:32.045Z,77.34
2022-11-23T18:30:58.492Z,77.84
2022-11-23T18:33:24.970Z,76.16
2022-11-23T18:35:51.440Z,76.03
2022-11-23T18:38:17.937Z,75.52
2022-11-23T18:40:44.529Z,76.88
2022-11-23T18:43:10.972Z,80.07
2022-11-23T18:45:37.428Z,83.20
2022-11-23T18:48:04.287Z,82.03
2022-11-23T18:50:30.748Z,80.76
2022-11-23T18:52:57.209Z,79.12
2022-11-23T18:55:23.677Z,81.13
2022-11-23T18:57:53.491Z,82.57
2022-11-23T19:00:20.719Z,80.97
2022-11-23T19:02:54.815Z,79.69
2022-11-23T19:05:22.742Z,79.79
2022-11-23T19:07:49.760Z,80.40
2022-11-23T19:10:16.541Z,78.88
2022-11-23T19:12:43.504Z,78.85
2022-11-23T19:15:11.196Z,78.30
2022-11-23T19:17:37.897Z,77.58
2022-11-23T19:20:05.955Z,77.11
2022-11-23T19:22:33.044Z,77.03
2022-11-23T19:24:59.491Z,76.50
2022-11-23T19:27:26.039Z,76.60
2022-11-23T19:29:52.502Z,75.60
2022-11-23T19:32:18.976Z,76.18
2022-11-23T19:34:45.451Z,76.43
2022-11-23T19:37:11.890Z,75.64
2022-11-23T19:39:38.368Z,75.56
2022-11-23T19:42:04.874Z,75.22
2022-11-23T19:44:31.313Z,75.76
2022-11-23T19:46:57.846Z,74.72
2022-11-23T19:49:24.339Z,76.11
2022-11-23T19:51:50.794Z,77.04
2022-11-23T19:54:17.244Z,79.47
2022-11-23T19:56:43.697Z,78.32
2022-11-23T19:59:10.144Z,77.67
2022-11-23T20:01:36.669Z,78.07
2022-11-23T20:04:08.349Z,78.52
2022-11-23T20:06:37.232Z,77.41
2022-11-23T20:09:07.388Z,77.63
2022-11-23T20:11:34.715Z,76.74
2022-11-23T20:14:01.777Z,77.06
2022-11-23T20:16:31.122Z,77.11
2022-11-23T20:19:02.868Z,77.21
2022-11-23T20:21:31.552Z,78.63
2022-11-23T20:24:05.399Z,77.76
2022-11-23T20:26:33.777Z,76.86
2022-11-23T20:29:00.375Z,76.89
2022-11-23T20:31:29.812Z,76.51
2022-11-23T20:33:57.031Z,76.50
2022-11-23T20:36:26.176Z,77.07
2022-11-23T20:38:53.753Z,76.05
2022-11-23T20:41:21.841Z,76.60
2022-11-23T20:43:51.648Z,76.68
2022-11-23T20:46:38.166Z,75.96
2022-11-23T20:49:04.512Z,76.01
2022-11-23T20:51:31.059Z,75.74
2022-11-23T20:53:58.013Z,75.51
2022-11-23T20:56:27.371Z,75.60
2022-11-23T20:58:56.436Z,75.43
2022-11-23T21:01:23.584Z,74.93
2022-11-23T21:03:52.773Z,75.26
2022-11-23T21:06:20.589Z,75.12
2022-11-23T21:08:48.966Z,75.64
2022-11-23T21:11:25.743Z,75.35
2022-11-23T21:13:52.250Z,75.06
2022-11-23T21:16:18.773Z,75.44
2022-11-23T21:18:45.297Z,75.52
2022-11-23T21:21:11.753Z,75.75
2022-11-23T21:23:38.316Z,75.93
2022-11-23T21:26:06.327Z,75.93
2022-11-23T21:28:33.630Z,76.43
2022-11-23T21:31:07.665Z,78.17
2022-11-23T21:33:36.684Z,77.79
2022-11-23T21:36:07.841Z,77.97
2022-11-23T21:38:35.094Z,77.17
2022-11-23T21:41:03.132Z,77.68
2022-11-23T21:43:29.967Z,79.45
2022-11-23T21:46:08.888Z,78.47
2022-11-23T21:48:37.185Z,77.19
2022-11-23T21:51:06.466Z,76.98
2022-11-23T21:53:33.819Z,78.36
2022-11-23T21:56:06.351Z,77.76
2022-11-23T21:58:32.835Z,77.56
2022-11-23T22:01:08.762Z,77.51
2022-11-23T22:03:36.985Z,77.13
2022-11-23T22:06:04.537Z,81.05
2022-11-23T22:08:31.290Z,80.68
2022-11-23T22:10:57.993Z,82.50
2022-11-23T22:13:24.478Z,81.93
2022-11-23T22:15:50.955Z,83.65
2022-11-23T22:18:17.533Z,86.12
2022-11-23T22:20:44.149Z,85.18
2022-11-23T22:23:12.654Z,83.98
2022-11-23T22:25:40.214Z,83.19
2022-11-23T22:28:09.422Z,82.69
2022-11-23T22:30:35.889Z,81.94
2022-11-23T22:33:02.364Z,80.71
2022-11-23T22:35:28.817Z,80.86
2022-11-23T22:37:55.308Z,80.65
2022-11-23T22:40:21.755Z,80.19
2022-11-23T22:42:48.200Z,80.68
2022-11-23T22:45:14.678Z,80.46
2022-11-23T22:47:41.119Z,80.00
2022-11-23T22:50:07.944Z,80.14
2022-11-23T22:52:34.419Z,80.10
2022-11-23T22:55:00.865Z,78.23
2022-11-23T22:57:27.322Z,77.65
2022-11-23T22:59:53.768Z,77.09
2022-11-23T23:02:20.301Z,76.62
2022-11-23T23:04:46.807Z,75.92
2022-11-23T23:07:13.363Z,77.02
2022-11-23T23:09:39.844Z,76.54
2022-11-23T23:12:06.534Z,76.98
2022-11-23T23:14:33.255Z,78.75
2022-11-23T23:16:59.934Z,81.07
2022-11-23T23:19:26.418Z,82.44
2022-11-23T23:21:52.869Z,84.50
2022-11-23T23:24:19.315Z,85.20
2022-11-23T23:26:45.780Z,85.96
2022-11-23T23:29:12.309Z,87.16
2022-11-23T23:31:38.795Z,88.08
2022-11-23T23:34:05.358Z,88.25
2022-11-23T23:36:31.823Z,86.63
2022-11-23T23:38:58.258Z,88.08
2022-11-23T23:41:24.704Z,89.06
2022-11-23T23:43:51.196Z,87.70
2022-11-23T23:46:17.865Z,87.82
2022-11-23T23:48:44.835Z,85.68
2022-11-23T23:51:16.899Z,85.11
2022-11-23T23:53:44.481Z,85.28
2022-11-23T23:56:15.510Z,84.21
2022-11-23T23:58:42.518Z,83.61
